DGMWF LBLS-LBPD
Flight info
| Callsign | DGMWF |
|---|---|
| Flight time | N/A |
| Altitude | 12000 |
| Route | LBLS DCT WAK DCT RUMEN LBPD |
| Aircraft | PA34/L-SDE3FGHIRWY/L |
Departure
| Time | 2026-05-05 18:52 |
|---|---|
| Airport | Lesnovo Airfield (LBLS) |
Arrival
| Time | N/A |
|---|---|
| Airport | Plovdiv International Airport (LBPD) |
| Time | Latitude | Longitude | Altitude | Speed | Heading |
|---|---|---|---|---|---|
| 2026-05-05 18:45 | 42.63446 | 23.64694 | 1858 ft | 0 kts | 288° |
| 2026-05-05 18:49 | 42.63448 | 23.64687 | 1855 ft | 4 kts | 285° |
| 2026-05-05 18:49 | 42.63435 | 23.64599 | 1858 ft | 11 kts | 197° |
| 2026-05-05 18:49 | 42.63399 | 23.64583 | 1858 ft | 0 kts | 194° |
| 2026-05-05 18:51 | 42.63360 | 23.64579 | 1858 ft | 5 kts | 92° |
| 2026-05-05 18:51 | 42.63359 | 23.64588 | 1858 ft | 0 kts | 107° |
| 2026-05-05 18:52 | 42.63356 | 23.64599 | 1858 ft | 15 kts | 107° |
| 2026-05-05 18:52 | 42.63246 | 23.65122 | 1889 ft | 88 kts | 105° |
| 2026-05-05 18:52 | 42.62957 | 23.65921 | 2217 ft | 103 kts | 133° |
| 2026-05-05 18:52 | 42.62283 | 23.66424 | 2568 ft | 117 kts | 154° |
| 2026-05-05 18:53 | 42.61575 | 23.66877 | 3109 ft | 106 kts | 150° |
| 2026-05-05 18:53 | 42.60933 | 23.67325 | 3621 ft | 103 kts | 154° |
| 2026-05-05 18:53 | 42.60305 | 23.67801 | 4001 ft | 106 kts | 143° |
| 2026-05-05 18:53 | 42.59680 | 23.68413 | 4392 ft | 111 kts | 140° |
| 2026-05-05 18:54 | 42.59075 | 23.69073 | 4835 ft | 112 kts | 144° |
| 2026-05-05 18:54 | 42.58434 | 23.69674 | 5274 ft | 111 kts | 142° |
| 2026-05-05 18:54 | 42.57815 | 23.70291 | 5729 ft | 110 kts | 142° |
| 2026-05-05 18:54 | 42.57339 | 23.71076 | 6178 ft | 109 kts | 114° |
| 2026-05-05 18:55 | 42.56988 | 23.71974 | 6626 ft | 106 kts | 120° |
| 2026-05-05 18:55 | 42.56628 | 23.72829 | 7065 ft | 102 kts | 119° |
| 2026-05-05 18:55 | 42.56267 | 23.73663 | 7429 ft | 106 kts | 118° |
| 2026-05-05 18:55 | 42.55881 | 23.74548 | 7751 ft | 112 kts | 118° |
| 2026-05-05 18:56 | 42.55473 | 23.75474 | 8079 ft | 117 kts | 118° |
| 2026-05-05 18:56 | 42.55049 | 23.76433 | 8408 ft | 121 kts | 119° |
| 2026-05-05 18:56 | 42.54613 | 23.77421 | 8748 ft | 123 kts | 118° |
| 2026-05-05 18:56 | 42.54172 | 23.78413 | 9086 ft | 123 kts | 118° |
| 2026-05-05 18:57 | 42.53732 | 23.79406 | 9417 ft | 122 kts | 117° |
| 2026-05-05 18:57 | 42.53304 | 23.80368 | 9745 ft | 116 kts | 117° |
| 2026-05-05 18:57 | 42.52906 | 23.81268 | 9938 ft | 119 kts | 116° |
| 2026-05-05 18:57 | 42.52443 | 23.82317 | 9937 ft | 135 kts | 117° |
| 2026-05-05 18:58 | 42.51947 | 23.83433 | 9968 ft | 142 kts | 117° |
| 2026-05-05 18:58 | 42.51404 | 23.84648 | 9971 ft | 164 kts | 117° |
| 2026-05-05 18:58 | 42.50788 | 23.86047 | 9975 ft | 180 kts | 118° |
| 2026-05-05 18:58 | 42.50126 | 23.87530 | 9973 ft | 185 kts | 118° |
| 2026-05-05 18:59 | 42.49461 | 23.89024 | 9968 ft | 185 kts | 118° |
| 2026-05-05 18:59 | 42.48795 | 23.90517 | 9962 ft | 184 kts | 118° |
| 2026-05-05 18:59 | 42.48137 | 23.91996 | 9963 ft | 182 kts | 118° |
| 2026-05-05 18:59 | 42.47480 | 23.93472 | 9961 ft | 184 kts | 118° |
| 2026-05-05 19:00 | 42.46818 | 23.94960 | 9967 ft | 185 kts | 118° |
| 2026-05-05 19:00 | 42.46152 | 23.96452 | 9965 ft | 185 kts | 118° |
| 2026-05-05 19:00 | 42.45484 | 23.97949 | 9965 ft | 186 kts | 118° |
| 2026-05-05 19:00 | 42.44814 | 23.99450 | 9967 ft | 186 kts | 118° |
| 2026-05-05 19:01 | 42.44144 | 24.00951 | 9959 ft | 186 kts | 118° |
| 2026-05-05 19:01 | 42.43473 | 24.02450 | 9962 ft | 186 kts | 118° |
| 2026-05-05 19:01 | 42.42814 | 24.03932 | 9964 ft | 186 kts | 118° |
| 2026-05-05 19:01 | 42.42146 | 24.05432 | 9958 ft | 186 kts | 118° |
| 2026-05-05 19:02 | 42.41477 | 24.06927 | 9960 ft | 185 kts | 118° |
| 2026-05-05 19:02 | 42.40809 | 24.08418 | 9961 ft | 185 kts | 118° |
| 2026-05-05 19:02 | 42.40142 | 24.09908 | 9956 ft | 185 kts | 118° |
| 2026-05-05 19:02 | 42.39472 | 24.11401 | 9957 ft | 185 kts | 118° |
| 2026-05-05 19:03 | 42.39029 | 24.12388 | 9958 ft | 186 kts | 118° |
| 2026-05-05 19:03 | 42.38359 | 24.13883 | 9977 ft | 185 kts | 118° |
| 2026-05-05 19:03 | 42.37690 | 24.15372 | 9978 ft | 186 kts | 118° |
| 2026-05-05 19:03 | 42.37017 | 24.16869 | 9978 ft | 186 kts | 118° |
| 2026-05-05 19:04 | 42.36344 | 24.18369 | 9981 ft | 187 kts | 118° |
| 2026-05-05 19:04 | 42.35670 | 24.19867 | 9985 ft | 186 kts | 118° |
| 2026-05-05 19:04 | 42.34997 | 24.21364 | 9981 ft | 187 kts | 118° |
| 2026-05-05 19:04 | 42.34321 | 24.22865 | 9981 ft | 187 kts | 118° |
| 2026-05-05 19:05 | 42.33645 | 24.24367 | 9976 ft | 187 kts | 118° |
| 2026-05-05 19:05 | 42.32968 | 24.25869 | 9979 ft | 187 kts | 117° |
| 2026-05-05 19:05 | 42.32291 | 24.27370 | 9975 ft | 187 kts | 118° |
| 2026-05-05 19:05 | 42.31614 | 24.28870 | 9969 ft | 188 kts | 117° |
| 2026-05-05 19:06 | 42.30941 | 24.30358 | 9664 ft | 183 kts | 118° |
| 2026-05-05 19:06 | 42.30336 | 24.31825 | 9258 ft | 174 kts | 109° |
| 2026-05-05 19:06 | 42.29889 | 24.33331 | 8875 ft | 171 kts | 109° |
| 2026-05-05 19:06 | 42.29442 | 24.34790 | 8568 ft | 166 kts | 109° |
| 2026-05-05 19:07 | 42.28998 | 24.36230 | 8183 ft | 166 kts | 109° |
| 2026-05-05 19:07 | 42.28557 | 24.37662 | 7882 ft | 162 kts | 109° |
| 2026-05-05 19:07 | 42.28135 | 24.39034 | 7685 ft | 155 kts | 109° |
| 2026-05-05 19:07 | 42.27725 | 24.40365 | 7479 ft | 152 kts | 109° |
| 2026-05-05 19:08 | 42.27323 | 24.41672 | 7277 ft | 150 kts | 110° |
| 2026-05-05 19:08 | 42.26925 | 24.42967 | 7075 ft | 149 kts | 110° |
| 2026-05-05 19:08 | 42.26534 | 24.44235 | 6882 ft | 148 kts | 110° |
| 2026-05-05 19:08 | 42.26141 | 24.45510 | 6686 ft | 147 kts | 110° |
| 2026-05-05 19:09 | 42.25750 | 24.46779 | 6502 ft | 146 kts | 110° |
| 2026-05-05 19:09 | 42.25360 | 24.48041 | 6301 ft | 146 kts | 110° |
| 2026-05-05 19:09 | 42.24971 | 24.49302 | 6099 ft | 145 kts | 110° |
| 2026-05-05 19:09 | 42.24583 | 24.50558 | 5894 ft | 144 kts | 110° |
| 2026-05-05 19:10 | 42.24197 | 24.51808 | 5690 ft | 144 kts | 110° |
| 2026-05-05 19:10 | 42.23811 | 24.53055 | 5495 ft | 144 kts | 110° |
| 2026-05-05 19:10 | 42.23426 | 24.54301 | 5297 ft | 143 kts | 110° |
| 2026-05-05 19:10 | 42.23042 | 24.55544 | 5103 ft | 143 kts | 111° |
| 2026-05-05 19:11 | 42.22653 | 24.56775 | 4901 ft | 142 kts | 110° |
| 2026-05-05 19:11 | 42.22129 | 24.57897 | 4691 ft | 142 kts | 126° |
| 2026-05-05 19:11 | 42.21529 | 24.58939 | 4492 ft | 143 kts | 125° |
| 2026-05-05 19:11 | 42.20903 | 24.60058 | 4300 ft | 155 kts | 126° |
| 2026-05-05 19:12 | 42.20240 | 24.61235 | 4110 ft | 159 kts | 125° |
| 2026-05-05 19:12 | 42.19571 | 24.62426 | 3993 ft | 160 kts | 126° |
| 2026-05-05 19:12 | 42.18900 | 24.63625 | 3875 ft | 160 kts | 125° |
| 2026-05-05 19:12 | 42.18236 | 24.64825 | 3749 ft | 159 kts | 125° |
| 2026-05-05 19:13 | 42.17603 | 24.65977 | 3502 ft | 149 kts | 125° |
| 2026-05-05 19:13 | 42.16996 | 24.67083 | 3229 ft | 145 kts | 125° |
| 2026-05-05 19:13 | 42.16403 | 24.68170 | 2945 ft | 144 kts | 126° |
| 2026-05-05 19:13 | 42.15844 | 24.69273 | 2692 ft | 140 kts | 123° |
| 2026-05-05 19:14 | 42.15320 | 24.70355 | 2516 ft | 137 kts | 123° |
| 2026-05-05 19:14 | 42.14781 | 24.71398 | 2332 ft | 134 kts | 128° |
| 2026-05-05 19:14 | 42.14199 | 24.72363 | 2159 ft | 132 kts | 129° |
| 2026-05-05 19:14 | 42.13593 | 24.73306 | 1990 ft | 133 kts | 131° |
| 2026-05-05 19:15 | 42.12975 | 24.74226 | 1902 ft | 127 kts | 131° |
| 2026-05-05 19:15 | 42.12419 | 24.75080 | 1888 ft | 117 kts | 125° |
| 2026-05-05 19:15 | 42.12011 | 24.75992 | 1873 ft | 114 kts | 125° |
| 2026-05-05 19:15 | 42.11522 | 24.76829 | 1848 ft | 113 kts | 130° |
| 2026-05-05 19:16 | 42.11001 | 24.77650 | 1708 ft | 117 kts | 131° |
| 2026-05-05 19:16 | 42.10492 | 24.78474 | 1570 ft | 118 kts | 126° |
| 2026-05-05 19:16 | 42.09996 | 24.79422 | 1287 ft | 123 kts | 126° |
| 2026-05-05 19:16 | 42.09501 | 24.80312 | 1205 ft | 114 kts | 128° |
| 2026-05-05 19:17 | 42.09037 | 24.81101 | 1095 ft | 103 kts | 128° |
| 2026-05-05 19:17 | 42.08608 | 24.81853 | 982 ft | 96 kts | 127° |
| 2026-05-05 19:17 | 42.08224 | 24.82541 | 840 ft | 90 kts | 128° |
| 2026-05-05 19:17 | 42.07847 | 24.83209 | 738 ft | 92 kts | 128° |
| 2026-05-05 19:18 | 42.07470 | 24.83879 | 611 ft | 81 kts | 128° |
| 2026-05-05 19:18 | 42.07187 | 24.84377 | 577 ft | 55 kts | 126° |
| 2026-05-05 19:18 | 42.06896 | 24.84892 | 622 ft | 94 kts | 128° |
| 2026-05-05 19:18 | 42.06605 | 24.85751 | 999 ft | 112 kts | 106° |
| 2026-05-05 19:19 | 42.06482 | 24.86832 | 1395 ft | 121 kts | 99° |
| 2026-05-05 19:19 | 42.06410 | 24.87976 | 1791 ft | 123 kts | 95° |
| 2026-05-05 19:19 | 42.06340 | 24.89146 | 2186 ft | 127 kts | 95° |
| 2026-05-05 19:19 | 42.06265 | 24.90334 | 2581 ft | 129 kts | 95° |
| 2026-05-05 19:20 | 42.06183 | 24.91543 | 2976 ft | 130 kts | 95° |
| 2026-05-05 19:20 | 42.05939 | 24.92814 | 2969 ft | 156 kts | 120° |
| 2026-05-05 19:20 | 42.05285 | 24.94050 | 2968 ft | 166 kts | 124° |
| 2026-05-05 19:20 | 42.04608 | 24.95339 | 2947 ft | 169 kts | 124° |
| 2026-05-05 19:21 | 42.03988 | 24.96521 | 2822 ft | 145 kts | 124° |
| 2026-05-05 19:21 | 42.03431 | 24.97587 | 2682 ft | 135 kts | 125° |
| 2026-05-05 19:21 | 42.02904 | 24.98600 | 2550 ft | 132 kts | 125° |
| 2026-05-05 19:21 | 42.02388 | 24.99605 | 2465 ft | 128 kts | 124° |
| 2026-05-05 19:22 | 42.01892 | 25.00577 | 2405 ft | 124 kts | 124° |
| 2026-05-05 19:22 | 42.01263 | 25.01298 | 2306 ft | 123 kts | 168° |
| 2026-05-05 19:22 | 42.00546 | 25.00845 | 2270 ft | 119 kts | 238° |
| 2026-05-05 19:22 | 42.00525 | 24.99767 | 2288 ft | 116 kts | 278° |
| 2026-05-05 19:23 | 42.00616 | 24.98682 | 2291 ft | 117 kts | 275° |
| 2026-05-05 19:23 | 42.00718 | 24.97590 | 2299 ft | 118 kts | 276° |
| 2026-05-05 19:23 | 42.00819 | 24.96493 | 2300 ft | 118 kts | 276° |
| 2026-05-05 19:23 | 42.01033 | 24.95441 | 2252 ft | 121 kts | 302° |
| 2026-05-05 19:24 | 42.01520 | 24.94484 | 2125 ft | 130 kts | 302° |
| 2026-05-05 19:24 | 42.02062 | 24.93459 | 1949 ft | 140 kts | 305° |
| 2026-05-05 19:24 | 42.02652 | 24.92376 | 1754 ft | 146 kts | 306° |
| 2026-05-05 19:24 | 42.03263 | 24.91297 | 1561 ft | 138 kts | 307° |
| 2026-05-05 19:25 | 42.03793 | 24.90371 | 1385 ft | 113 kts | 306° |
| 2026-05-05 19:25 | 42.04228 | 24.89597 | 1247 ft | 97 kts | 306° |
| 2026-05-05 19:25 | 42.04636 | 24.88871 | 1122 ft | 106 kts | 306° |
| 2026-05-05 19:25 | 42.05098 | 24.88058 | 978 ft | 106 kts | 307° |
| 2026-05-05 19:26 | 42.05508 | 24.87332 | 843 ft | 91 kts | 306° |
| 2026-05-05 19:26 | 42.05881 | 24.86678 | 686 ft | 87 kts | 307° |
| 2026-05-05 19:26 | 42.06238 | 24.86060 | 583 ft | 74 kts | 307° |
| 2026-05-05 19:26 | 42.06502 | 24.85589 | 577 ft | 54 kts | 306° |
| 2026-05-05 19:27 | 42.06775 | 24.85101 | 613 ft | 91 kts | 307° |
| 2026-05-05 19:27 | 42.07189 | 24.84390 | 1062 ft | 98 kts | 308° |
| 2026-05-05 19:27 | 42.07634 | 24.83568 | 1468 ft | 117 kts | 305° |
| 2026-05-05 19:27 | 42.08134 | 24.82658 | 1862 ft | 128 kts | 306° |
| 2026-05-05 19:28 | 42.08676 | 24.81649 | 2249 ft | 137 kts | 306° |
| 2026-05-05 19:28 | 42.09251 | 24.80582 | 2636 ft | 143 kts | 306° |
| 2026-05-05 19:28 | 42.09834 | 24.79486 | 3016 ft | 146 kts | 306° |
| 2026-05-05 19:28 | 42.10405 | 24.78346 | 3396 ft | 147 kts | 301° |
| 2026-05-05 19:29 | 42.10892 | 24.77145 | 3765 ft | 145 kts | 300° |
| 2026-05-05 19:29 | 42.11384 | 24.75968 | 4138 ft | 144 kts | 301° |
| 2026-05-05 19:29 | 42.11884 | 24.74802 | 4507 ft | 143 kts | 302° |
| 2026-05-05 19:29 | 42.12382 | 24.73646 | 4877 ft | 142 kts | 302° |
| 2026-05-05 19:30 | 42.12877 | 24.72497 | 5247 ft | 141 kts | 302° |
| 2026-05-05 19:30 | 42.13372 | 24.71350 | 5617 ft | 141 kts | 302° |
| 2026-05-05 19:30 | 42.13866 | 24.70203 | 5995 ft | 142 kts | 302° |
| 2026-05-05 19:30 | 42.14359 | 24.69058 | 6375 ft | 141 kts | 303° |
| 2026-05-05 19:31 | 42.14843 | 24.67931 | 6729 ft | 140 kts | 303° |
| 2026-05-05 19:31 | 42.15330 | 24.66801 | 7087 ft | 138 kts | 303° |
| 2026-05-05 19:31 | 42.15810 | 24.65686 | 7450 ft | 136 kts | 303° |
| 2026-05-05 19:31 | 42.16282 | 24.64587 | 7817 ft | 135 kts | 303° |
| 2026-05-05 19:32 | 42.16747 | 24.63508 | 8184 ft | 132 kts | 304° |
| 2026-05-05 19:32 | 42.17199 | 24.62453 | 8556 ft | 128 kts | 304° |
| 2026-05-05 19:32 | 42.17638 | 24.61429 | 8935 ft | 124 kts | 304° |
| 2026-05-05 19:32 | 42.18062 | 24.60441 | 9311 ft | 120 kts | 304° |
| 2026-05-05 19:33 | 42.18466 | 24.59496 | 9689 ft | 112 kts | 305° |
| 2026-05-05 19:33 | 42.18833 | 24.58638 | 10025 ft | 102 kts | 306° |
| 2026-05-05 19:33 | 42.19240 | 24.57708 | 9966 ft | 125 kts | 305° |
| 2026-05-05 19:33 | 42.19693 | 24.56653 | 9969 ft | 134 kts | 304° |
| 2026-05-05 19:34 | 42.20165 | 24.55548 | 9965 ft | 140 kts | 304° |
| 2026-05-05 19:34 | 42.20656 | 24.54398 | 9964 ft | 142 kts | 304° |
| 2026-05-05 19:34 | 42.21181 | 24.53223 | 9964 ft | 152 kts | 306° |
| 2026-05-05 19:35 | 42.22333 | 24.50485 | 9966 ft | 177 kts | 303° |
| 2026-05-05 19:35 | 42.22953 | 24.49029 | 9969 ft | 181 kts | 303° |
| 2026-05-05 19:35 | 42.23583 | 24.47555 | 9969 ft | 182 kts | 303° |
| 2026-05-05 19:35 | 42.24217 | 24.46072 | 9970 ft | 183 kts | 303° |
| 2026-05-05 19:36 | 42.24850 | 24.44588 | 9972 ft | 183 kts | 303° |
| 2026-05-05 19:36 | 42.25485 | 24.43101 | 9973 ft | 183 kts | 303° |
| 2026-05-05 19:36 | 42.26119 | 24.41615 | 9972 ft | 183 kts | 303° |
| 2026-05-05 19:36 | 42.26753 | 24.40129 | 9971 ft | 183 kts | 303° |
| 2026-05-05 19:37 | 42.27387 | 24.38640 | 9977 ft | 183 kts | 303° |
| 2026-05-05 19:37 | 42.28020 | 24.37154 | 9975 ft | 183 kts | 303° |
| 2026-05-05 19:37 | 42.28653 | 24.35668 | 9976 ft | 183 kts | 303° |
| 2026-05-05 19:37 | 42.29285 | 24.34182 | 9978 ft | 182 kts | 303° |
| 2026-05-05 19:38 | 42.29919 | 24.32692 | 9975 ft | 182 kts | 303° |
| 2026-05-05 19:38 | 42.30559 | 24.31217 | 9975 ft | 182 kts | 305° |
| 2026-05-05 19:38 | 42.31278 | 24.29807 | 9975 ft | 182 kts | 308° |
| 2026-05-05 19:38 | 42.32002 | 24.28400 | 9978 ft | 183 kts | 307° |
| 2026-05-05 19:39 | 42.32713 | 24.26980 | 9979 ft | 183 kts | 307° |
| 2026-05-05 19:39 | 42.33412 | 24.25574 | 9977 ft | 183 kts | 307° |
| 2026-05-05 19:39 | 42.34121 | 24.24147 | 9979 ft | 183 kts | 307° |
| 2026-05-05 19:39 | 42.34831 | 24.22720 | 9980 ft | 183 kts | 306° |
| 2026-05-05 19:40 | 42.35540 | 24.21293 | 9980 ft | 183 kts | 306° |
| 2026-05-05 19:40 | 42.36251 | 24.19863 | 9984 ft | 183 kts | 306° |
| 2026-05-05 19:40 | 42.36961 | 24.18435 | 9982 ft | 183 kts | 307° |
| 2026-05-05 19:40 | 42.37672 | 24.17002 | 9979 ft | 183 kts | 306° |
| 2026-05-05 19:41 | 42.38380 | 24.15577 | 9982 ft | 179 kts | 306° |
| 2026-05-05 19:41 | 42.39065 | 24.14193 | 9750 ft | 180 kts | 306° |
| 2026-05-05 19:41 | 42.39770 | 24.12776 | 9413 ft | 183 kts | 306° |
| 2026-05-05 19:41 | 42.40482 | 24.11338 | 9081 ft | 180 kts | 306° |
| 2026-05-05 19:42 | 42.41166 | 24.09959 | 8745 ft | 174 kts | 306° |
| 2026-05-05 19:42 | 42.41832 | 24.08614 | 8410 ft | 170 kts | 305° |
| 2026-05-05 19:42 | 42.42489 | 24.07290 | 8079 ft | 169 kts | 305° |
| 2026-05-05 19:42 | 42.43139 | 24.05976 | 7753 ft | 167 kts | 305° |
| 2026-05-05 19:43 | 42.43779 | 24.04682 | 7436 ft | 168 kts | 304° |
| 2026-05-05 19:43 | 42.44438 | 24.03348 | 7114 ft | 168 kts | 304° |
| 2026-05-05 19:43 | 42.45081 | 24.02047 | 6811 ft | 168 kts | 304° |
| 2026-05-05 19:43 | 42.45731 | 24.00729 | 6499 ft | 168 kts | 304° |
| 2026-05-05 19:44 | 42.46382 | 23.99413 | 6176 ft | 169 kts | 304° |
| 2026-05-05 19:44 | 42.47036 | 23.98086 | 5843 ft | 169 kts | 304° |
| 2026-05-05 19:44 | 42.47691 | 23.96761 | 5522 ft | 170 kts | 304° |
| 2026-05-05 19:44 | 42.48338 | 23.95444 | 5269 ft | 166 kts | 303° |
| 2026-05-05 19:45 | 42.48982 | 23.94140 | 5022 ft | 166 kts | 303° |
| 2026-05-05 19:45 | 42.49629 | 23.92830 | 4778 ft | 169 kts | 303° |
| 2026-05-05 19:45 | 42.50279 | 23.91500 | 4523 ft | 167 kts | 303° |
| 2026-05-05 19:45 | 42.50892 | 23.90255 | 4519 ft | 153 kts | 303° |
| 2026-05-05 19:46 | 42.51466 | 23.89100 | 4516 ft | 148 kts | 303° |
| 2026-05-05 19:46 | 42.52035 | 23.87926 | 4508 ft | 149 kts | 303° |
| 2026-05-05 19:46 | 42.52606 | 23.86773 | 4497 ft | 145 kts | 303° |
| 2026-05-05 19:46 | 42.53164 | 23.85637 | 4497 ft | 145 kts | 303° |
| 2026-05-05 19:47 | 42.53725 | 23.84504 | 4497 ft | 144 kts | 304° |
| 2026-05-05 19:47 | 42.54295 | 23.83335 | 4374 ft | 152 kts | 303° |
| 2026-05-05 19:47 | 42.54886 | 23.82126 | 4253 ft | 155 kts | 303° |
| 2026-05-05 19:47 | 42.55483 | 23.80911 | 4129 ft | 155 kts | 303° |
| 2026-05-05 19:48 | 42.56080 | 23.79691 | 3999 ft | 155 kts | 303° |
| 2026-05-05 19:48 | 42.56677 | 23.78478 | 3888 ft | 155 kts | 303° |
| 2026-05-05 19:48 | 42.57272 | 23.77263 | 3762 ft | 155 kts | 303° |
| 2026-05-05 19:48 | 42.57868 | 23.76048 | 3640 ft | 154 kts | 303° |
| 2026-05-05 19:49 | 42.58463 | 23.74831 | 3521 ft | 155 kts | 303° |
| 2026-05-05 19:49 | 42.58856 | 23.74027 | 3427 ft | 154 kts | 303° |
| 2026-05-05 19:49 | 42.59646 | 23.72412 | 3265 ft | 155 kts | 303° |
| 2026-05-05 19:49 | 42.60239 | 23.71203 | 3134 ft | 152 kts | 303° |
| 2026-05-05 19:50 | 42.60827 | 23.70029 | 2961 ft | 144 kts | 307° |
| 2026-05-05 19:50 | 42.61478 | 23.68974 | 2681 ft | 146 kts | 312° |
| 2026-05-05 19:50 | 42.62125 | 23.68020 | 2404 ft | 126 kts | 314° |
| 2026-05-05 19:50 | 42.62489 | 23.67478 | 2239 ft | 108 kts | 311° |
| 2026-05-05 19:51 | 42.62888 | 23.66682 | 2022 ft | 96 kts | 295° |
| 2026-05-05 19:51 | 42.63099 | 23.65825 | 1908 ft | 98 kts | 285° |
| 2026-05-05 19:51 | 42.63265 | 23.65047 | 1860 ft | 70 kts | 285° |
| 2026-05-05 19:51 | 42.63357 | 23.64593 | 1858 ft | 13 kts | 287° |
| 2026-05-05 19:52 | 42.63432 | 23.64597 | 1856 ft | 11 kts | 19° |
| 2026-05-05 19:52 | 42.63490 | 23.64605 | 1856 ft | 9 kts | 280° |
| 2026-05-05 19:52 | 42.63472 | 23.64560 | 1856 ft | 0 kts | 197° |
| 2026-05-05 19:52 | 42.63471 | 23.64560 | 1856 ft | 0 kts | 197° |